sensor_id;sensor_type;location;lat;lon;timestamp;pressure;altitude;pressure_sealevel;temperature;humidity
61906;BME280;47863;55.766;37.672;2024-03-06T00:02:19;100966.59;;;-4.27;56.06
61906;BME280;47863;55.766;37.672;2024-03-06T00:04:44;101005.34;;;-4.07;56.48
61906;BME280;47863;55.766;37.672;2024-03-06T00:07:10;100992.59;;;-4.21;56.07
61906;BME280;47863;55.766;37.672;2024-03-06T00:09:36;100998.75;;;-4.23;55.88
61906;BME280;47863;55.766;37.672;2024-03-06T00:12:03;100984.31;;;-4.38;56.54
61906;BME280;47863;55.766;37.672;2024-03-06T00:14:29;100990.44;;;-4.39;56.91
61906;BME280;47863;55.766;37.672;2024-03-06T00:16:55;100950.19;;;-4.69;55.85
61906;BME280;47863;55.766;37.672;2024-03-06T00:19:23;100980.38;;;-4.56;56.49
61906;BME280;47863;55.766;37.672;2024-03-06T00:21:49;100964.06;;;-4.66;56.48
61906;BME280;47863;55.766;37.672;2024-03-06T00:24:15;101016.63;;;-4.41;56.12
61906;BME280;47863;55.766;37.672;2024-03-06T00:26:43;101019.41;;;-4.48;56.75
61906;BME280;47863;55.766;37.672;2024-03-06T00:29:10;101015.19;;;-4.54;56.38
61906;BME280;47863;55.766;37.672;2024-03-06T00:31:36;101019.66;;;-4.59;56.34
61906;BME280;47863;55.766;37.672;2024-03-06T00:34:02;101013.59;;;-4.60;57.00
61906;BME280;47863;55.766;37.672;2024-03-06T00:36:28;101013.72;;;-4.66;57.33
61906;BME280;47863;55.766;37.672;2024-03-06T00:38:53;101018.06;;;-4.66;57.04
61906;BME280;47863;55.766;37.672;2024-03-06T00:41:19;101017.25;;;-4.68;56.52
61906;BME280;47863;55.766;37.672;2024-03-06T00:43:45;100986.31;;;-4.88;56.87
61906;BME280;47863;55.766;37.672;2024-03-06T00:46:11;101021.59;;;-4.67;56.31
61906;BME280;47863;55.766;37.672;2024-03-06T00:48:37;100978.56;;;-4.91;56.76
61906;BME280;47863;55.766;37.672;2024-03-06T00:51:05;101012.19;;;-4.76;56.51
61906;BME280;47863;55.766;37.672;2024-03-06T00:53:33;101020.16;;;-4.81;56.42
61906;BME280;47863;55.766;37.672;2024-03-06T00:55:58;100955.78;;;-5.25;57.13
61906;BME280;47863;55.766;37.672;2024-03-06T00:58:24;101018.66;;;-4.92;57.35
61906;BME280;47863;55.766;37.672;2024-03-06T01:00:49;100997.88;;;-4.99;56.79
61906;BME280;47863;55.766;37.672;2024-03-06T01:03:15;101009.81;;;-4.87;56.53
61906;BME280;47863;55.766;37.672;2024-03-06T01:05:41;100997.75;;;-4.92;56.87
61906;BME280;47863;55.766;37.672;2024-03-06T01:08:07;100961.63;;;-5.14;56.86
61906;BME280;47863;55.766;37.672;2024-03-06T01:10:32;101006.38;;;-4.89;55.96
61906;BME280;47863;55.766;37.672;2024-03-06T01:12:58;100979.78;;;-5.08;56.61
61906;BME280;47863;55.766;37.672;2024-03-06T01:15:24;100983.97;;;-4.99;56.25
61906;BME280;47863;55.766;37.672;2024-03-06T01:17:50;101002.91;;;-4.89;56.25
61906;BME280;47863;55.766;37.672;2024-03-06T01:20:15;100949.69;;;-5.26;56.08
61906;BME280;47863;55.766;37.672;2024-03-06T01:22:41;101005.84;;;-5.05;56.08
61906;BME280;47863;55.766;37.672;2024-03-06T01:25:07;100993.09;;;-5.20;56.08
61906;BME280;47863;55.766;37.672;2024-03-06T01:27:32;101010.28;;;-5.08;56.32
61906;BME280;47863;55.766;37.672;2024-03-06T01:29:58;100997.41;;;-5.18;56.40
61906;BME280;47863;55.766;37.672;2024-03-06T01:32:24;101012.09;;;-5.12;56.49
61906;BME280;47863;55.766;37.672;2024-03-06T01:34:49;101000.00;;;-5.18;56.46
61906;BME280;47863;55.766;37.672;2024-03-06T01:37:15;101006.13;;;-5.17;56.29
61906;BME280;47863;55.766;37.672;2024-03-06T01:39:41;101005.22;;;-5.16;56.08
61906;BME280;47863;55.766;37.672;2024-03-06T01:42:07;100984.59;;;-5.30;56.34
61906;BME280;47863;55.766;37.672;2024-03-06T01:44:33;101014.72;;;-5.13;55.78
61906;BME280;47863;55.766;37.672;2024-03-06T01:46:58;101013.00;;;-5.13;55.71
61906;BME280;47863;55.766;37.672;2024-03-06T01:49:25;100972.66;;;-5.42;55.62
61906;BME280;47863;55.766;37.672;2024-03-06T01:51:54;101019.88;;;-5.09;56.19
61906;BME280;47863;55.766;37.672;2024-03-06T01:54:21;100985.53;;;-5.32;55.82
61906;BME280;47863;55.766;37.672;2024-03-06T01:56:48;101014.03;;;-5.22;55.85
61906;BME280;47863;55.766;37.672;2024-03-06T01:59:20;101027.69;;;-5.07;55.83
61906;BME280;47863;55.766;37.672;2024-03-06T02:01:47;101028.50;;;-5.05;55.66
61906;BME280;47863;55.766;37.672;2024-03-06T02:04:13;100995.03;;;-5.28;55.35
61906;BME280;47863;55.766;37.672;2024-03-06T02:06:39;101017.31;;;-5.12;55.72
61906;BME280;47863;55.766;37.672;2024-03-06T02:09:05;101008.66;;;-5.15;55.17
61906;BME280;47863;55.766;37.672;2024-03-06T02:11:33;101009.59;;;-5.18;55.67
61906;BME280;47863;55.766;37.672;2024-03-06T02:13:59;101003.69;;;-5.26;55.44
61906;BME280;47863;55.766;37.672;2024-03-06T02:16:25;101020.03;;;-5.16;55.67
61906;BME280;47863;55.766;37.672;2024-03-06T02:18:55;100997.78;;;-5.36;55.63
61906;BME280;47863;55.766;37.672;2024-03-06T02:21:24;101024.44;;;-5.19;56.21
61906;BME280;47863;55.766;37.672;2024-03-06T02:23:51;101019.13;;;-5.15;55.46
61906;BME280;47863;55.766;37.672;2024-03-06T02:26:21;101018.19;;;-5.11;55.82
61906;BME280;47863;55.766;37.672;2024-03-06T02:28:51;100995.81;;;-5.25;55.47
61906;BME280;47863;55.766;37.672;2024-03-06T02:31:18;101015.59;;;-5.13;55.39
61906;BME280;47863;55.766;37.672;2024-03-06T02:33:45;101023.41;;;-5.11;55.13
61906;BME280;47863;55.766;37.672;2024-03-06T02:36:15;101025.16;;;-5.12;55.22
61906;BME280;47863;55.766;37.672;2024-03-06T02:38:42;101002.06;;;-5.33;55.75
61906;BME280;47863;55.766;37.672;2024-03-06T02:41:08;100986.50;;;-5.38;55.66
61906;BME280;47863;55.766;37.672;2024-03-06T02:43:34;101028.69;;;-5.14;55.68
61906;BME280;47863;55.766;37.672;2024-03-06T02:46:00;101033.94;;;-5.16;55.26
61906;BME280;47863;55.766;37.672;2024-03-06T02:48:26;101003.84;;;-5.35;55.73
61906;BME280;47863;55.766;37.672;2024-03-06T02:50:52;101045.25;;;-5.15;55.66
61906;BME280;47863;55.766;37.672;2024-03-06T02:53:17;101000.53;;;-5.44;55.87
61906;BME280;47863;55.766;37.672;2024-03-06T02:55:43;101048.75;;;-5.15;55.39
61906;BME280;47863;55.766;37.672;2024-03-06T02:58:08;101050.56;;;-5.19;55.75
61906;BME280;47863;55.766;37.672;2024-03-06T03:00:34;101053.09;;;-5.15;55.66
61906;BME280;47863;55.766;37.672;2024-03-06T03:03:00;101057.53;;;-5.19;55.68
61906;BME280;47863;55.766;37.672;2024-03-06T03:05:25;101065.41;;;-5.22;56.23
61906;BME280;47863;55.766;37.672;2024-03-06T03:07:51;101070.66;;;-5.24;55.50
61906;BME280;47863;55.766;37.672;2024-03-06T03:10:17;101074.16;;;-5.23;55.73
61906;BME280;47863;55.766;37.672;2024-03-06T03:12:44;101081.13;;;-5.24;55.87
61906;BME280;47863;55.766;37.672;2024-03-06T03:15:10;101038.97;;;-5.50;55.80
61906;BME280;47863;55.766;37.672;2024-03-06T03:17:36;101082.13;;;-5.31;55.31
61906;BME280;47863;55.766;37.672;2024-03-06T03:20:02;101078.72;;;-5.34;55.39
61906;BME280;47863;55.766;37.672;2024-03-06T03:22:46;101077.09;;;-5.42;55.80
61906;BME280;47863;55.766;37.672;2024-03-06T03:25:13;101066.78;;;-5.48;56.00
61906;BME280;47863;55.766;37.672;2024-03-06T03:27:40;101089.06;;;-5.30;55.54
61906;BME280;47863;55.766;37.672;2024-03-06T03:30:12;101069.38;;;-5.48;55.67
61906;BME280;47863;55.766;37.672;2024-03-06T03:32:38;101080.69;;;-5.47;56.00
61906;BME280;47863;55.766;37.672;2024-03-06T03:35:05;101091.00;;;-5.41;56.06
61906;BME280;47863;55.766;37.672;2024-03-06T03:37:31;101092.78;;;-5.43;55.38
61906;BME280;47863;55.766;37.672;2024-03-06T03:39:57;101083.28;;;-5.46;55.75
61906;BME280;47863;55.766;37.672;2024-03-06T03:42:23;101044.44;;;-5.63;55.45
61906;BME280;47863;55.766;37.672;2024-03-06T03:44:48;101055.53;;;-5.53;55.32
61906;BME280;47863;55.766;37.672;2024-03-06T03:47:14;101082.25;;;-5.37;55.76
61906;BME280;47863;55.766;37.672;2024-03-06T03:49:40;101054.78;;;-5.60;55.71
61906;BME280;47863;55.766;37.672;2024-03-06T03:52:06;101081.56;;;-5.47;55.65
61906;BME280;47863;55.766;37.672;2024-03-06T03:54:32;101086.69;;;-5.42;56.11
61906;BME280;47863;55.766;37.672;2024-03-06T03:56:58;101056.56;;;-5.60;55.13
61906;BME280;47863;55.766;37.672;2024-03-06T03:59:27;101087.63;;;-5.45;55.58
61906;BME280;47863;55.766;37.672;2024-03-06T04:01:53;101081.59;;;-5.48;55.76
61906;BME280;47863;55.766;37.672;2024-03-06T04:04:18;101077.13;;;-5.43;56.33
61906;BME280;47863;55.766;37.672;2024-03-06T04:06:44;101043.53;;;-5.62;55.88
61906;BME280;47863;55.766;37.672;2024-03-06T04:09:11;101075.25;;;-5.35;55.67
61906;BME280;47863;55.766;37.672;2024-03-06T04:11:37;101080.31;;;-5.27;55.14
61906;BME280;47863;55.766;37.672;2024-03-06T04:14:04;101063.88;;;-5.32;55.71
61906;BME280;47863;55.766;37.672;2024-03-06T04:16:32;101073.09;;;-5.13;55.52
61906;BME280;47863;55.766;37.672;2024-03-06T04:18:57;101064.38;;;-5.13;54.85
61906;BME280;47863;55.766;37.672;2024-03-06T04:21:25;101029.84;;;-5.29;55.63
61906;BME280;47863;55.766;37.672;2024-03-06T04:23:51;100951.59;;;-5.78;55.29
61906;BME280;47863;55.766;37.672;2024-03-06T04:26:17;101057.34;;;-5.10;55.01
61906;BME280;47863;55.766;37.672;2024-03-06T04:28:43;101073.72;;;-5.02;55.19
61906;BME280;47863;55.766;37.672;2024-03-06T04:31:09;101087.59;;;-5.00;55.50
61906;BME280;47863;55.766;37.672;2024-03-06T04:33:36;101076.31;;;-5.02;55.10
61906;BME280;47863;55.766;37.672;2024-03-06T04:36:03;101085.84;;;-4.97;55.72
61906;BME280;47863;55.766;37.672;2024-03-06T04:38:31;101089.28;;;-4.95;55.22
61906;BME280;47863;55.766;37.672;2024-03-06T04:40:56;101068.56;;;-5.05;55.63
61906;BME280;47863;55.766;37.672;2024-03-06T04:43:22;101089.09;;;-4.88;55.71
61906;BME280;47863;55.766;37.672;2024-03-06T04:45:48;101077.81;;;-4.88;54.95
61906;BME280;47863;55.766;37.672;2024-03-06T04:48:13;100998.88;;;-5.04;55.38
61906;BME280;47863;55.766;37.672;2024-03-06T04:50:39;101080.59;;;-4.16;55.58
61906;BME280;47863;55.766;37.672;2024-03-06T04:53:07;101080.53;;;-3.78;55.39
61906;BME280;47863;55.766;37.672;2024-03-06T04:55:32;101057.84;;;-3.44;54.83
61906;BME280;47863;55.766;37.672;2024-03-06T04:57:58;101050.81;;;-3.11;54.42
61906;BME280;47863;55.766;37.672;2024-03-06T05:00:24;101078.44;;;-2.40;54.51
61906;BME280;47863;55.766;37.672;2024-03-06T05:02:50;101065.28;;;-2.10;54.19
61906;BME280;47863;55.766;37.672;2024-03-06T05:05:15;101076.94;;;-1.65;53.88
61906;BME280;47863;55.766;37.672;2024-03-06T05:07:41;101085.09;;;-1.23;53.70
61906;BME280;47863;55.766;37.672;2024-03-06T05:10:07;101087.19;;;-0.58;53.72
61906;BME280;47863;55.766;37.672;2024-03-06T05:12:34;101054.66;;;-0.12;53.30
61906;BME280;47863;55.766;37.672;2024-03-06T05:14:59;101051.94;;;0.32;52.62
61906;BME280;47863;55.766;37.672;2024-03-06T05:17:25;101076.34;;;0.78;52.62
61906;BME280;47863;55.766;37.672;2024-03-06T05:19:51;101072.97;;;0.95;52.91
61906;BME280;47863;55.766;37.672;2024-03-06T05:22:17;101074.66;;;1.17;53.00
61906;BME280;47863;55.766;37.672;2024-03-06T05:24:43;101080.22;;;1.49;53.11
61906;BME280;47863;55.766;37.672;2024-03-06T05:27:09;101054.38;;;1.74;52.56
61906;BME280;47863;55.766;37.672;2024-03-06T05:29:38;101073.66;;;2.30;52.19
61906;BME280;47863;55.766;37.672;2024-03-06T05:32:05;101042.38;;;2.73;52.26
61906;BME280;47863;55.766;37.672;2024-03-06T05:34:34;101065.94;;;3.61;51.34
61906;BME280;47863;55.766;37.672;2024-03-06T05:37:00;101083.06;;;4.33;50.21
61906;BME280;47863;55.766;37.672;2024-03-06T05:39:27;101083.19;;;4.90;48.96
61906;BME280;47863;55.766;37.672;2024-03-06T05:41:59;101080.59;;;5.61;48.34
61906;BME280;47863;55.766;37.672;2024-03-06T05:44:25;101085.41;;;6.24;48.74
61906;BME280;47863;55.766;37.672;2024-03-06T05:46:50;101087.22;;;6.64;48.27
61906;BME280;47863;55.766;37.672;2024-03-06T05:49:16;101059.50;;;6.79;48.17
61906;BME280;47863;55.766;37.672;2024-03-06T05:51:41;101089.47;;;7.21;48.40
61906;BME280;47863;55.766;37.672;2024-03-06T05:54:07;101074.50;;;7.57;48.44
61906;BME280;47863;55.766;37.672;2024-03-06T05:56:35;101088.28;;;8.12;48.10
61906;BME280;47863;55.766;37.672;2024-03-06T05:59:01;101090.31;;;8.57;47.82
61906;BME280;47863;55.766;37.672;2024-03-06T06:01:33;101082.81;;;9.08;45.60
61906;BME280;47863;55.766;37.672;2024-03-06T06:03:59;101076.38;;;9.45;46.55
61906;BME280;47863;55.766;37.672;2024-03-06T06:06:26;101058.69;;;9.76;46.27
61906;BME280;47863;55.766;37.672;2024-03-06T06:08:51;101063.53;;;10.26;46.77
61906;BME280;47863;55.766;37.672;2024-03-06T06:11:17;101054.56;;;10.16;46.18
61906;BME280;47863;55.766;37.672;2024-03-06T06:19:20;101032.38;;;7.00;48.82
61906;BME280;47863;55.766;37.672;2024-03-06T06:21:46;101061.81;;;6.45;49.31
61906;BME280;47863;55.766;37.672;2024-03-06T06:24:13;101057.47;;;5.90;49.28
61906;BME280;47863;55.766;37.672;2024-03-06T06:26:39;101080.59;;;5.61;49.40
61906;BME280;47863;55.766;37.672;2024-03-06T06:29:05;101090.91;;;5.24;49.12
61906;BME280;47863;55.766;37.672;2024-03-06T06:31:30;101002.59;;;4.32;48.82
61906;BME280;47863;55.766;37.672;2024-03-06T06:33:56;101066.78;;;4.39;49.26
61906;BME280;47863;55.766;37.672;2024-03-06T06:36:22;101088.97;;;4.22;48.87
61906;BME280;47863;55.766;37.672;2024-03-06T06:38:48;101077.72;;;3.87;48.92
61906;BME280;47863;55.766;37.672;2024-03-06T06:41:15;101082.03;;;3.73;48.49
61906;BME280;47863;55.766;37.672;2024-03-06T06:43:41;101063.47;;;3.42;48.81
61906;BME280;47863;55.766;37.672;2024-03-06T06:46:07;101088.56;;;3.50;48.58
61906;BME280;47863;55.766;37.672;2024-03-06T06:48:33;101093.38;;;3.44;48.43
61906;BME280;47863;55.766;37.672;2024-03-06T06:51:00;101074.53;;;3.32;48.21
61906;BME280;47863;55.766;37.672;2024-03-06T06:53:30;101106.50;;;3.45;48.23
61906;BME280;47863;55.766;37.672;2024-03-06T06:55:56;101061.00;;;3.05;48.52
61906;BME280;47863;55.766;37.672;2024-03-06T06:58:21;101087.22;;;3.10;48.56
61906;BME280;47863;55.766;37.672;2024-03-06T07:00:48;101088.31;;;3.06;48.37
61906;BME280;47863;55.766;37.672;2024-03-06T07:03:13;101099.19;;;3.17;48.31
61906;BME280;47863;55.766;37.672;2024-03-06T07:05:39;101099.41;;;3.30;48.33
61906;BME280;47863;55.766;37.672;2024-03-06T07:08:07;101102.66;;;3.35;48.26
61906;BME280;47863;55.766;37.672;2024-03-06T07:10:32;101100.44;;;3.43;47.84
61906;BME280;47863;55.766;37.672;2024-03-06T07:12:58;101088.50;;;3.52;47.81
61906;BME280;47863;55.766;37.672;2024-03-06T07:15:23;101089.50;;;3.49;47.54
61906;BME280;47863;55.766;37.672;2024-03-06T07:17:50;101076.44;;;3.46;47.70
61906;BME280;47863;55.766;37.672;2024-03-06T07:20:16;101095.78;;;3.64;47.28
61906;BME280;47863;55.766;37.672;2024-03-06T07:22:42;101105.09;;;3.71;47.44
61906;BME280;47863;55.766;37.672;2024-03-06T07:25:08;101103.44;;;3.69;47.71
61906;BME280;47863;55.766;37.672;2024-03-06T07:27:33;101109.78;;;3.66;47.56
61906;BME280;47863;55.766;37.672;2024-03-06T07:29:59;101094.22;;;3.60;47.61
61906;BME280;47863;55.766;37.672;2024-03-06T07:32:24;101101.16;;;3.63;46.63
61906;BME280;47863;55.766;37.672;2024-03-06T07:34:51;101053.50;;;3.29;45.92
61906;BME280;47863;55.766;37.672;2024-03-06T07:37:16;101109.28;;;3.60;45.42
61906;BME280;47863;55.766;37.672;2024-03-06T07:39:42;101101.22;;;3.61;45.69
61906;BME280;47863;55.766;37.672;2024-03-06T07:42:08;101124.41;;;3.73;45.22
61906;BME280;47863;55.766;37.672;2024-03-06T07:44:33;101115.88;;;3.84;45.83
61906;BME280;47863;55.766;37.672;2024-03-06T07:47:01;101090.03;;;3.72;44.88
61906;BME280;47863;55.766;37.672;2024-03-06T07:49:27;101046.69;;;3.41;45.04
61906;BME280;47863;55.766;37.672;2024-03-06T07:51:52;101119.13;;;3.89;44.60
61906;BME280;47863;55.766;37.672;2024-03-06T07:54:19;101117.16;;;4.09;44.87
61906;BME280;47863;55.766;37.672;2024-03-06T07:56:44;101112.31;;;4.31;44.70
61906;BME280;47863;55.766;37.672;2024-03-06T07:59:10;101115.03;;;4.76;44.87
61906;BME280;47863;55.766;37.672;2024-03-06T08:01:38;101106.00;;;5.38;44.13
61906;BME280;47863;55.766;37.672;2024-03-06T08:04:04;101106.84;;;5.94;43.28
61906;BME280;47863;55.766;37.672;2024-03-06T08:06:29;101121.59;;;6.54;42.76
61906;BME280;47863;55.766;37.672;2024-03-06T08:08:58;101121.22;;;6.99;42.21
61906;BME280;47863;55.766;37.672;2024-03-06T08:11:24;101114.09;;;7.50;42.41
61906;BME280;47863;55.766;37.672;2024-03-06T08:13:50;101101.28;;;7.92;41.75
61906;BME280;47863;55.766;37.672;2024-03-06T08:16:22;101128.63;;;8.44;42.14
61906;BME280;47863;55.766;37.672;2024-03-06T08:18:47;101128.28;;;8.73;41.75
61906;BME280;47863;55.766;37.672;2024-03-06T08:21:13;101068.72;;;8.60;42.29
61906;BME280;47863;55.766;37.672;2024-03-06T08:23:38;101068.63;;;8.72;41.86
61906;BME280;47863;55.766;37.672;2024-03-06T08:26:04;101115.00;;;9.29;40.35
61906;BME280;47863;55.766;37.672;2024-03-06T08:28:29;101125.25;;;9.58;40.50
61906;BME280;47863;55.766;37.672;2024-03-06T08:30:56;101089.47;;;9.59;40.70
61906;BME280;47863;55.766;37.672;2024-03-06T08:33:21;101100.78;;;9.63;38.42
61906;BME280;47863;55.766;37.672;2024-03-06T08:35:48;101114.78;;;9.55;39.59
61906;BME280;47863;55.766;37.672;2024-03-06T08:38:14;101104.31;;;9.29;38.55
61906;BME280;47863;55.766;37.672;2024-03-06T08:40:39;101105.63;;;9.24;39.36
61906;BME280;47863;55.766;37.672;2024-03-06T08:43:07;101069.50;;;8.84;38.13
61906;BME280;47863;55.766;37.672;2024-03-06T08:45:38;101064.41;;;8.81;38.61
61906;BME280;47863;55.766;37.672;2024-03-06T08:48:04;101066.88;;;9.07;38.14
61906;BME280;47863;55.766;37.672;2024-03-06T08:50:31;101100.78;;;9.63;38.34
61906;BME280;47863;55.766;37.672;2024-03-06T08:52:56;101106.84;;;9.87;38.53
61906;BME280;47863;55.766;37.672;2024-03-06T08:55:22;101094.31;;;9.88;38.79
61906;BME280;47863;55.766;37.672;2024-03-06T08:57:48;101092.53;;;9.66;37.64
61906;BME280;47863;55.766;37.672;2024-03-06T09:00:16;101067.50;;;9.33;37.12
61906;BME280;47863;55.766;37.672;2024-03-06T09:02:43;101073.41;;;8.91;36.86
61906;BME280;47863;55.766;37.672;2024-03-06T09:05:08;101081.72;;;8.64;37.78
61906;BME280;47863;55.766;37.672;2024-03-06T09:07:36;101100.00;;;8.46;38.40
61906;BME280;47863;55.766;37.672;2024-03-06T09:10:09;101086.69;;;8.09;38.71
61906;BME280;47863;55.766;37.672;2024-03-06T09:12:36;101095.88;;;8.05;38.98
61906;BME280;47863;55.766;37.672;2024-03-06T09:15:03;101068.72;;;7.63;39.22
61906;BME280;47863;55.766;37.672;2024-03-06T09:17:31;101100.31;;;7.44;37.68
61906;BME280;47863;55.766;37.672;2024-03-06T09:19:57;101091.16;;;7.22;38.08
61906;BME280;47863;55.766;37.672;2024-03-06T09:22:23;101100.03;;;7.10;38.63
61906;BME280;47863;55.766;37.672;2024-03-06T09:24:48;101055.88;;;6.93;39.21
61906;BME280;47863;55.766;37.672;2024-03-06T09:27:15;101087.13;;;7.29;38.53
61906;BME280;47863;55.766;37.672;2024-03-06T09:29:41;101053.56;;;7.14;38.77
61906;BME280;47863;55.766;37.672;2024-03-06T09:32:07;101080.59;;;7.21;39.21
61906;BME280;47863;55.766;37.672;2024-03-06T09:34:33;101081.28;;;7.11;38.89
61906;BME280;47863;55.766;37.672;2024-03-06T09:36:59;101067.09;;;7.11;38.92
61906;BME280;47863;55.766;37.672;2024-03-06T09:39:24;101062.09;;;7.19;38.77
61906;BME280;47863;55.766;37.672;2024-03-06T09:41:50;101036.38;;;7.18;38.60
61906;BME280;47863;55.766;37.672;2024-03-06T09:44:17;101074.50;;;7.44;38.94
61906;BME280;47863;55.766;37.672;2024-03-06T09:46:47;101088.56;;;7.59;37.73
61906;BME280;47863;55.766;37.672;2024-03-06T09:49:18;101059.44;;;7.56;38.12
61906;BME280;47863;55.766;37.672;2024-03-06T09:51:46;101076.16;;;7.71;38.18
61906;BME280;47863;55.766;37.672;2024-03-06T09:54:13;101069.69;;;7.62;37.56
61906;BME280;47863;55.766;37.672;2024-03-06T09:56:47;101081.00;;;7.53;38.29
61906;BME280;47863;55.766;37.672;2024-03-06T09:59:13;101075.19;;;7.35;38.89
61906;BME280;47863;55.766;37.672;2024-03-06T10:02:00;101079.03;;;7.18;39.10
61906;BME280;47863;55.766;37.672;2024-03-06T10:04:29;101068.91;;;6.98;39.44
61906;BME280;47863;55.766;37.672;2024-03-06T10:07:01;101056.97;;;6.78;39.15
61906;BME280;47863;55.766;37.672;2024-03-06T10:09:31;101076.97;;;6.70;39.52
61906;BME280;47863;55.766;37.672;2024-03-06T10:11:58;101035.31;;;6.44;39.56
61906;BME280;47863;55.766;37.672;2024-03-06T10:14:24;101073.47;;;6.70;39.25
61906;BME280;47863;55.766;37.672;2024-03-06T10:19:18;101068.16;;;6.70;38.67
61906;BME280;47863;55.766;37.672;2024-03-06T10:21:47;101065.50;;;6.70;38.95
61906;BME280;47863;55.766;37.672;2024-03-06T10:24:26;101033.41;;;6.46;38.79
61906;BME280;47863;55.766;37.672;2024-03-06T10:26:54;101017.22;;;6.49;38.42
61906;BME280;47863;55.766;37.672;2024-03-06T10:29:22;101042.25;;;6.85;38.00
61906;BME280;47863;55.766;37.672;2024-03-06T10:31:52;100869.88;;;6.11;37.75
61906;BME280;47863;55.766;37.672;2024-03-06T10:34:18;101053.59;;;7.51;37.57
61906;BME280;47863;55.766;37.672;2024-03-06T10:36:45;100879.53;;;6.64;37.60
61906;BME280;47863;55.766;37.672;2024-03-06T10:39:12;101019.31;;;7.70;37.42
61906;BME280;47863;55.766;37.672;2024-03-06T10:41:42;101050.13;;;8.23;37.07
61906;BME280;47863;55.766;37.672;2024-03-06T10:44:11;100998.81;;;8.30;36.85
61906;BME280;47863;55.766;37.672;2024-03-06T10:46:43;100985.34;;;8.67;36.67
61906;BME280;47863;55.766;37.672;2024-03-06T10:49:13;101017.75;;;9.53;36.22
61906;BME280;47863;55.766;37.672;2024-03-06T10:51:43;101049.81;;;10.19;35.64
61906;BME280;47863;55.766;37.672;2024-03-06T10:54:11;101017.88;;;10.39;35.26
61906;BME280;47863;55.766;37.672;2024-03-06T10:56:40;101048.63;;;10.86;35.12
61906;BME280;47863;55.766;37.672;2024-03-06T10:59:13;101030.41;;;11.11;32.01
61906;BME280;47863;55.766;37.672;2024-03-06T11:01:41;101022.81;;;11.16;33.53
61906;BME280;47863;55.766;37.672;2024-03-06T11:04:10;101019.75;;;10.90;35.10
61906;BME280;47863;55.766;37.672;2024-03-06T11:06:37;101041.13;;;10.80;35.16
61906;BME280;47863;55.766;37.672;2024-03-06T11:09:03;101044.00;;;10.67;34.97
61906;BME280;47863;55.766;37.672;2024-03-06T11:11:29;101024.72;;;10.52;35.28
61906;BME280;47863;55.766;37.672;2024-03-06T11:13:55;101017.47;;;10.64;34.64
61906;BME280;47863;55.766;37.672;2024-03-06T11:16:29;101000.16;;;10.47;33.71
61906;BME280;47863;55.766;37.672;2024-03-06T11:19:08;101025.34;;;10.66;34.23
61906;BME280;47863;55.766;37.672;2024-03-06T11:21:35;101036.06;;;10.66;34.80
61906;BME280;47863;55.766;37.672;2024-03-06T11:26:50;101028.44;;;11.13;34.79
61906;BME280;47863;55.766;37.672;2024-03-06T11:29:19;101009.75;;;11.93;32.73
61906;BME280;47863;55.766;37.672;2024-03-06T11:32:05;101018.94;;;12.58;32.52
61906;BME280;47863;55.766;37.672;2024-03-06T11:34:34;101021.03;;;12.74;33.13
61906;BME280;47863;55.766;37.672;2024-03-06T11:37:04;101015.50;;;12.76;31.59
61906;BME280;47863;55.766;37.672;2024-03-06T11:39:36;100967.88;;;12.48;32.68
61906;BME280;47863;55.766;37.672;2024-03-06T11:42:03;101008.94;;;13.25;32.53
61906;BME280;47863;55.766;37.672;2024-03-06T11:44:31;101007.22;;;13.34;31.91
61906;BME280;47863;55.766;37.672;2024-03-06T11:46:59;100990.56;;;13.48;31.50
61906;BME280;47863;55.766;37.672;2024-03-06T11:49:27;101001.97;;;14.06;31.71
61906;BME280;47863;55.766;37.672;2024-03-06T11:51:56;101005.03;;;14.55;30.06
61906;BME280;47863;55.766;37.672;2024-03-06T11:54:24;100994.84;;;15.19;30.17
61906;BME280;47863;55.766;37.672;2024-03-06T11:56:53;100992.44;;;15.51;29.37
61906;BME280;47863;55.766;37.672;2024-03-06T11:59:30;100988.56;;;15.61;26.75
61906;BME280;47863;55.766;37.672;2024-03-06T12:01:58;100989.19;;;15.98;29.96
61906;BME280;47863;55.766;37.672;2024-03-06T12:04:24;100984.47;;;16.00;29.81
61906;BME280;47863;55.766;37.672;2024-03-06T12:06:50;100985.81;;;15.96;29.70
61906;BME280;47863;55.766;37.672;2024-03-06T12:09:16;100975.94;;;15.70;30.06
61906;BME280;47863;55.766;37.672;2024-03-06T12:11:43;100975.91;;;15.62;30.51
61906;BME280;47863;55.766;37.672;2024-03-06T12:14:17;100939.75;;;15.46;30.28
61906;BME280;47863;55.766;37.672;2024-03-06T12:16:44;100963.69;;;16.41;29.91
61906;BME280;47863;55.766;37.672;2024-03-06T12:19:19;100971.75;;;17.61;29.21
61906;BME280;47863;55.766;37.672;2024-03-06T12:21:47;100972.13;;;18.13;28.70
61906;BME280;47863;55.766;37.672;2024-03-06T12:24:16;100942.06;;;17.99;28.61
61906;BME280;47863;55.766;37.672;2024-03-06T12:26:41;100935.56;;;17.54;28.47
61906;BME280;47863;55.766;37.672;2024-03-06T12:29:08;100961.97;;;17.21;28.64
61906;BME280;47863;55.766;37.672;2024-03-06T12:31:36;100962.25;;;16.95;28.88
61906;BME280;47863;55.766;37.672;2024-03-06T12:34:03;100957.91;;;16.44;28.84
61906;BME280;47863;55.766;37.672;2024-03-06T12:36:30;100937.38;;;15.35;29.62
61906;BME280;47863;55.766;37.672;2024-03-06T12:38:59;100925.16;;;14.28;30.26
61906;BME280;47863;55.766;37.672;2024-03-06T12:41:24;100962.47;;;13.61;31.43
61906;BME280;47863;55.766;37.672;2024-03-06T12:43:52;100962.41;;;12.87;31.57
61906;BME280;47863;55.766;37.672;2024-03-06T12:46:18;100957.16;;;12.29;31.32
61906;BME280;47863;55.766;37.672;2024-03-06T12:48:44;100939.50;;;11.68;31.47
61906;BME280;47863;55.766;37.672;2024-03-06T12:51:10;100943.56;;;11.62;31.10
61906;BME280;47863;55.766;37.672;2024-03-06T12:53:36;100945.81;;;11.67;30.76
61906;BME280;47863;55.766;37.672;2024-03-06T12:56:02;100940.16;;;11.50;30.38